createdAt,value
2023-04-05T00:00:39.585Z,-0.40
2023-04-05T00:01:39.071Z,-0.39
2023-04-05T00:02:39.094Z,-0.42
2023-04-05T00:03:39.077Z,-0.36
2023-04-05T00:04:39.201Z,-0.52
2023-04-05T00:05:38.987Z,-0.44
2023-04-05T00:06:38.969Z,-0.43
2023-04-05T00:07:38.971Z,-0.40
2023-04-05T00:08:38.942Z,-0.44
2023-04-05T00:09:38.952Z,-0.57
2023-04-05T00:10:39.081Z,-0.55
2023-04-05T00:11:38.962Z,-0.40
2023-04-05T00:12:38.901Z,-0.46
2023-04-05T00:13:38.911Z,-0.47
2023-04-05T00:14:38.893Z,-0.46
2023-04-05T00:15:38.895Z,-0.44
2023-04-05T00:16:38.895Z,-0.44
2023-04-05T00:17:38.880Z,-0.46
2023-04-05T00:18:38.932Z,-0.44
2023-04-05T00:19:38.825Z,-0.43
2023-04-05T00:20:39.205Z,-0.47
2023-04-05T00:21:38.799Z,-0.47
2023-04-05T00:22:38.800Z,-0.44
2023-04-05T00:23:38.919Z,-0.40
2023-04-05T00:24:38.788Z,-0.40
2023-04-05T00:25:38.775Z,-0.37
2023-04-05T00:26:38.742Z,-0.43
2023-04-05T00:27:38.726Z,-0.49
2023-04-05T00:28:38.752Z,-0.44
2023-04-05T00:29:38.707Z,-0.49
2023-04-05T00:30:39.106Z,-0.44
2023-04-05T00:31:38.720Z,-0.40
2023-04-05T00:32:38.688Z,-0.42
2023-04-05T00:33:38.663Z,-0.37
2023-04-05T00:34:38.697Z,-0.33
2023-04-05T00:35:38.651Z,-0.40
2023-04-05T00:36:38.628Z,-0.43
2023-04-05T00:37:38.638Z,-0.43
2023-04-05T00:38:38.633Z,-0.46
2023-04-05T00:39:38.594Z,-0.43
2023-04-05T00:40:38.668Z,-0.43
2023-04-05T00:41:38.573Z,-0.36
2023-04-05T00:42:38.584Z,-0.42
2023-04-05T00:43:38.556Z,-0.43
2023-04-05T00:44:38.537Z,-0.37
2023-04-05T00:45:38.564Z,-0.40
2023-04-05T00:46:38.546Z,-0.42
2023-04-05T00:47:38.546Z,-0.37
2023-04-05T00:48:38.501Z,-0.34
2023-04-05T00:49:38.514Z,-0.43
2023-04-05T00:50:38.519Z,-0.47
2023-04-05T00:51:38.473Z,-0.42
2023-04-05T00:52:38.465Z,-0.36
2023-04-05T00:53:38.451Z,-0.52
2023-04-05T00:54:38.455Z,-0.47
2023-04-05T00:55:38.497Z,-0.42
2023-04-05T00:56:38.404Z,-0.60
2023-04-05T00:57:38.396Z,-0.44
2023-04-05T00:58:38.395Z,-0.40
2023-04-05T00:59:38.400Z,-0.46
2023-04-05T01:00:38.508Z,-0.44
2023-04-05T01:01:38.416Z,-0.39
2023-04-05T01:02:38.366Z,-0.47
2023-04-05T01:03:38.348Z,-0.47
2023-04-05T01:04:38.344Z,-0.40
2023-04-05T01:05:38.316Z,-0.36
2023-04-05T01:06:38.309Z,-0.40
2023-04-05T01:07:38.277Z,-0.37
2023-04-05T01:08:38.288Z,-0.36
2023-04-05T01:09:38.272Z,-0.34
2023-04-05T01:10:38.275Z,-0.33
2023-04-05T01:11:38.246Z,-0.33
2023-04-05T01:12:38.233Z,-0.39
2023-04-05T01:13:38.267Z,-0.25
2023-04-05T01:14:38.218Z,-0.26
2023-04-05T01:15:38.215Z,-0.23
2023-04-05T01:16:38.196Z,-0.28
2023-04-05T01:17:38.238Z,-0.28
2023-04-05T01:18:38.184Z,-0.33
2023-04-05T01:19:38.142Z,-0.25
2023-04-05T01:20:38.162Z,-0.23
2023-04-05T01:21:39.195Z,-0.29
2023-04-05T01:22:38.163Z,-0.36
2023-04-05T01:23:38.107Z,-0.40
2023-04-05T01:24:38.108Z,-0.37
2023-04-05T01:25:38.082Z,-0.39
2023-04-05T01:26:38.066Z,-0.28
2023-04-05T01:27:38.050Z,-0.31
2023-04-05T01:28:38.050Z,-0.23
2023-04-05T01:29:38.046Z,-0.31
2023-04-05T01:30:38.175Z,-0.28
2023-04-05T01:31:38.191Z,-0.23
2023-04-05T01:32:38.087Z,-0.23
2023-04-05T01:33:38.009Z,-0.29
2023-04-05T01:34:38.008Z,-0.29
2023-04-05T01:35:38.029Z,-0.29
2023-04-05T01:36:37.948Z,-0.25
2023-04-05T01:37:37.948Z,-0.36
2023-04-05T01:38:37.964Z,-0.28
2023-04-05T01:39:37.919Z,-0.28
2023-04-05T01:40:37.960Z,-0.25
2023-04-05T01:41:37.919Z,-0.33
2023-04-05T01:42:37.888Z,-0.26
2023-04-05T01:43:37.874Z,-0.31
2023-04-05T01:44:37.880Z,-0.18
2023-04-05T01:45:37.868Z,-0.19
2023-04-05T01:46:37.865Z,-0.19
2023-04-05T01:47:37.931Z,-0.15
2023-04-05T01:48:37.846Z,-0.18
2023-04-05T01:49:37.808Z,-0.22
2023-04-05T01:50:37.813Z,-0.23
2023-04-05T01:51:37.799Z,-0.22
2023-04-05T01:52:37.783Z,-0.21
2023-04-05T01:53:37.784Z,-0.16
2023-04-05T01:54:37.766Z,-0.18
2023-04-05T01:55:37.764Z,-0.15
2023-04-05T01:56:37.750Z,-0.15
2023-04-05T01:57:37.725Z,-0.16
2023-04-05T01:58:37.736Z,-0.18
2023-04-05T01:59:37.717Z,-0.18
2023-04-05T02:00:37.757Z,-0.14
2023-04-05T02:01:37.689Z,-0.18
2023-04-05T02:02:37.824Z,-0.21
2023-04-05T02:03:37.765Z,-0.18
2023-04-05T02:04:37.652Z,-0.18
2023-04-05T02:05:37.646Z,-0.16
2023-04-05T02:06:37.613Z,-0.19
2023-04-05T02:07:37.627Z,-0.23
2023-04-05T02:08:37.597Z,-0.14
2023-04-05T02:09:37.586Z,-0.15
2023-04-05T02:10:37.612Z,-0.21
2023-04-05T02:11:37.564Z,-0.10
2023-04-05T02:12:37.572Z,-0.08
2023-04-05T02:13:37.539Z,-0.08
2023-04-05T02:14:37.524Z,-0.14
2023-04-05T02:15:37.541Z,-0.16
2023-04-05T02:16:37.520Z,-0.16
2023-04-05T02:17:37.509Z,-0.18
2023-04-05T02:18:37.483Z,-0.18
2023-04-05T02:19:37.472Z,-0.21
2023-04-05T02:20:37.536Z,-0.15
2023-04-05T02:21:37.455Z,-0.18
2023-04-05T02:22:37.448Z,-0.16
2023-04-05T02:23:37.449Z,-0.19
2023-04-05T02:24:37.416Z,-0.18
2023-04-05T02:25:37.428Z,-0.19
2023-04-05T02:26:37.417Z,-0.18
2023-04-05T02:27:37.405Z,-0.14
2023-04-05T02:28:37.380Z,-0.18
2023-04-05T02:29:37.363Z,-0.22
2023-04-05T02:30:37.365Z,-0.25
2023-04-05T02:31:37.406Z,-0.18
2023-04-05T02:32:37.360Z,-0.28
2023-04-05T02:33:37.314Z,-0.23
2023-04-05T02:34:37.309Z,-0.33
2023-04-05T02:35:37.330Z,-0.31
2023-04-05T02:36:37.345Z,-0.23
2023-04-05T02:37:37.290Z,-0.39
2023-04-05T02:38:37.261Z,-0.39
2023-04-05T02:39:37.256Z,-0.34
2023-04-05T02:40:37.243Z,-0.36
2023-04-05T02:41:37.243Z,-0.36
2023-04-05T02:42:37.246Z,-0.33
2023-04-05T02:43:37.210Z,-0.28
2023-04-05T02:44:37.189Z,-0.23
2023-04-05T02:45:37.200Z,-0.29
2023-04-05T02:46:37.197Z,-0.25
2023-04-05T02:47:37.192Z,-0.26
2023-04-05T02:48:37.142Z,-0.29
2023-04-05T02:49:37.132Z,-0.28
2023-04-05T02:50:37.141Z,-0.23
2023-04-05T02:51:37.109Z,-0.23
2023-04-05T02:52:37.110Z,-0.18
2023-04-05T02:53:37.087Z,-0.23
2023-04-05T02:54:37.070Z,-0.22
2023-04-05T02:55:37.183Z,-0.26
2023-04-05T02:56:37.056Z,-0.31
2023-04-05T02:57:37.064Z,-0.34
2023-04-05T02:58:37.174Z,-0.25
2023-04-05T02:59:37.018Z,-0.29
2023-04-05T03:00:37.058Z,-0.23
2023-04-05T03:01:37.116Z,-0.29
2023-04-05T03:02:39.998Z,-0.19
2023-04-05T03:03:37.008Z,-0.19
2023-04-05T03:04:36.975Z,-0.16
2023-04-05T03:05:36.974Z,-0.19
2023-04-05T03:06:36.938Z,-0.14
2023-04-05T03:07:36.934Z,-0.18
2023-04-05T03:08:36.999Z,-0.14
2023-04-05T03:09:36.911Z,-0.08
2023-04-05T03:10:36.916Z,-0.19
2023-04-05T03:11:36.884Z,-0.18
2023-04-05T03:12:36.882Z,-0.16
2023-04-05T03:13:36.904Z,-0.19
2023-04-05T03:14:36.873Z,-0.28
2023-04-05T03:15:36.858Z,-0.11
2023-04-05T03:16:39.418Z,-0.10
2023-04-05T03:17:36.847Z,-0.18
2023-04-05T03:18:36.842Z,-0.14
2023-04-05T03:19:36.809Z,-0.15
2023-04-05T03:20:36.781Z,-0.19
2023-04-05T03:21:36.778Z,-0.14
2023-04-05T03:22:36.771Z,-0.19
2023-04-05T03:23:36.786Z,-0.15
2023-04-05T03:24:36.739Z,-0.14
2023-04-05T03:25:36.731Z,-0.19
2023-04-05T03:26:36.714Z,-0.11
2023-04-05T03:27:36.728Z,-0.16
2023-04-05T03:28:36.709Z,-0.11
2023-04-05T03:29:36.685Z,-0.18
2023-04-05T03:30:36.696Z,-0.19
2023-04-05T03:31:36.702Z,-0.22
2023-04-05T03:32:36.716Z,-0.23
2023-04-05T03:33:36.642Z,-0.16
2023-04-05T03:34:36.661Z,-0.16
2023-04-05T03:35:36.748Z,-0.29
2023-04-05T03:36:36.623Z,-0.29
2023-04-05T03:37:36.603Z,-0.23
2023-04-05T03:38:36.585Z,-0.25
2023-04-05T03:39:36.625Z,-0.26
2023-04-05T03:40:36.568Z,-0.29
2023-04-05T03:41:36.547Z,-0.26
2023-04-05T03:42:36.587Z,-0.31
2023-04-05T03:43:36.529Z,-0.28
2023-04-05T03:44:36.526Z,-0.26
2023-04-05T03:45:36.506Z,-0.23
2023-04-05T03:46:36.591Z,-0.28
2023-04-05T03:47:36.502Z,-0.31
2023-04-05T03:48:36.498Z,-0.22
2023-04-05T03:49:36.456Z,-0.21
2023-04-05T03:50:36.447Z,-0.15
2023-04-05T03:51:36.440Z,-0.21
2023-04-05T03:52:36.438Z,-0.15
2023-04-05T03:53:36.440Z,-0.15
2023-04-05T03:54:36.404Z,-0.16
2023-04-05T03:55:36.398Z,-0.16
2023-04-05T03:56:36.391Z,-0.14
2023-04-05T03:57:36.368Z,-0.14
2023-04-05T03:58:36.400Z,-0.14
2023-04-05T03:59:36.347Z,-0.15
2023-04-05T04:00:36.350Z,-0.10
2023-04-05T04:01:36.388Z,-0.11
2023-04-05T04:02:36.341Z,-0.07
2023-04-05T04:03:36.635Z,-0.07
2023-04-05T04:04:36.307Z,-0.08
2023-04-05T04:05:36.364Z,-0.08
2023-04-05T04:06:36.511Z,-0.10
2023-04-05T04:07:36.276Z,-0.18
2023-04-05T04:08:36.241Z,-0.19
2023-04-05T04:09:36.242Z,-0.16
2023-04-05T04:10:36.226Z,-0.18
2023-04-05T04:11:36.228Z,-0.16
2023-04-05T04:12:36.210Z,-0.16
2023-04-05T04:13:44.354Z,-0.15
2023-04-05T04:14:43.812Z,-0.16
2023-04-05T04:15:36.191Z,-0.16
2023-04-05T04:16:36.204Z,-0.26
2023-04-05T04:17:36.207Z,-0.16
2023-04-05T04:18:36.154Z,-0.11
2023-04-05T04:19:36.204Z,-0.15
2023-04-05T04:20:36.103Z,-0.22
2023-04-05T04:21:36.099Z,-0.10
2023-04-05T04:22:36.097Z,-0.14
2023-04-05T04:23:36.098Z,-0.14
2023-04-05T04:24:36.069Z,-0.10
2023-04-05T04:25:36.070Z,-0.14
2023-04-05T04:26:36.055Z,-0.22
2023-04-05T04:27:36.049Z,-0.15
2023-04-05T04:28:36.033Z,-0.19
2023-04-05T04:29:36.001Z,-0.18
2023-04-05T04:30:37.560Z,-0.14
2023-04-05T04:31:36.016Z,-0.14
2023-04-05T04:32:35.989Z,-0.15
2023-04-05T04:33:36.005Z,-0.14
2023-04-05T04:34:35.974Z,-0.14
2023-04-05T04:35:35.989Z,-0.10
2023-04-05T04:36:35.933Z,-0.10
2023-04-05T04:37:35.911Z,-0.10
2023-04-05T04:38:35.906Z,-0.08
2023-04-05T04:39:38.040Z,-0.03
2023-04-05T04:40:35.881Z,-0.03
2023-04-05T04:41:35.944Z,-0.07
2023-04-05T04:42:35.883Z,-0.04
2023-04-05T04:43:35.848Z,-0.04
2023-04-05T04:44:35.844Z,-0.01
2023-04-05T04:45:35.833Z,-0.03
2023-04-05T04:46:35.828Z,-0.05
2023-04-05T04:47:35.847Z,-0.03
2023-04-05T04:48:35.793Z,-0.08
2023-04-05T04:49:35.780Z,-0.05
2023-04-05T04:50:35.786Z,-0.01
2023-04-05T04:51:35.778Z,-0.04
2023-04-05T04:52:35.742Z,-0.04
2023-04-05T04:53:35.744Z,-0.01
2023-04-05T04:54:35.719Z,-0.03
2023-04-05T04:55:35.710Z,0.00
2023-04-05T04:56:35.718Z,0.00
2023-04-05T04:57:35.691Z,0.04
2023-04-05T04:58:35.678Z,0.00
2023-04-05T04:59:35.697Z,-0.03
2023-04-05T05:00:35.744Z,-0.04
2023-04-05T05:01:35.678Z,-0.03
2023-04-05T05:02:35.660Z,0.04
2023-04-05T05:03:35.626Z,-0.07
2023-04-05T05:04:35.638Z,-0.05
2023-04-05T05:05:35.671Z,-0.04
2023-04-05T05:06:35.690Z,0.00
2023-04-05T05:07:35.601Z,0.00
2023-04-05T05:08:35.578Z,0.00
2023-04-05T05:09:35.556Z,-0.01
2023-04-05T05:10:35.630Z,0.03
2023-04-05T05:11:35.628Z,0.02
2023-04-05T05:12:35.566Z,0.00
2023-04-05T05:13:35.514Z,0.00
2023-04-05T05:14:35.539Z,0.04
2023-04-05T05:15:35.500Z,0.08
2023-04-05T05:16:35.552Z,0.04
2023-04-05T05:17:35.555Z,0.08
2023-04-05T05:18:35.458Z,0.11
2023-04-05T05:19:35.443Z,0.10
2023-04-05T05:20:35.433Z,0.14
2023-04-05T05:21:35.424Z,0.13
2023-04-05T05:22:35.454Z,0.11
2023-04-05T05:23:35.410Z,0.08
2023-04-05T05:24:35.396Z,0.07
2023-04-05T05:25:35.399Z,0.13
2023-04-05T05:26:35.372Z,0.11
2023-04-05T05:27:35.378Z,0.04
2023-04-05T05:28:35.345Z,0.07
2023-04-05T05:29:35.345Z,-0.03
2023-04-05T05:30:35.356Z,0.00
2023-04-05T05:31:35.386Z,-0.03
2023-04-05T05:32:35.357Z,-0.03
2023-04-05T05:33:35.292Z,-0.01
2023-04-05T05:34:35.280Z,-0.04
2023-04-05T05:35:35.294Z,0.00
2023-04-05T05:36:35.256Z,0.02
2023-04-05T05:37:35.263Z,-0.01
2023-04-05T05:38:35.278Z,-0.08
2023-04-05T05:39:35.218Z,-0.08
2023-04-05T05:40:35.210Z,-0.19
2023-04-05T05:41:35.211Z,-0.11
2023-04-05T05:42:35.203Z,-0.16
2023-04-05T05:43:35.177Z,-0.10
2023-04-05T05:44:35.190Z,-0.04
2023-04-05T05:45:35.147Z,-0.01
2023-04-05T05:46:35.203Z,0.03
2023-04-05T05:47:35.151Z,-0.03
2023-04-05T05:48:35.140Z,0.07
2023-04-05T05:49:35.121Z,0.04
2023-04-05T05:50:35.101Z,0.11
2023-04-05T05:51:35.133Z,0.07
2023-04-05T05:52:35.072Z,0.13
2023-04-05T05:53:35.063Z,0.24
2023-04-05T05:54:35.070Z,0.15
2023-04-05T05:55:35.066Z,0.20
2023-04-05T05:56:35.036Z,0.07
2023-04-05T05:57:35.061Z,0.14
2023-04-05T05:58:35.011Z,0.21
2023-04-05T05:59:35.081Z,0.23
2023-04-05T06:00:35.029Z,0.28
2023-04-05T06:01:34.971Z,0.32
2023-04-05T06:02:35.056Z,0.18
2023-04-05T06:03:35.076Z,0.29
2023-04-05T06:04:35.033Z,0.29
2023-04-05T06:05:34.931Z,0.24
2023-04-05T06:06:37.302Z,0.31
2023-04-05T06:07:34.907Z,0.29
2023-04-05T06:08:34.920Z,0.39
2023-04-05T06:09:34.911Z,0.38
2023-04-05T06:10:34.912Z,0.36
2023-04-05T06:11:37.123Z,0.46
2023-04-05T06:12:35.866Z,0.38
2023-04-05T06:13:34.836Z,0.47
2023-04-05T06:14:34.851Z,0.50
2023-04-05T06:15:34.835Z,0.46
2023-04-05T06:16:35.858Z,0.51
2023-04-05T06:17:34.822Z,0.62
2023-04-05T06:18:34.780Z,0.58
2023-04-05T06:19:34.777Z,0.60
2023-04-05T06:20:34.780Z,0.60
2023-04-05T06:21:34.756Z,0.58
2023-04-05T06:22:34.739Z,0.58
2023-04-05T06:23:34.732Z,0.55
2023-04-05T06:24:34.811Z,0.65
2023-04-05T06:25:34.704Z,0.65
2023-04-05T06:26:34.735Z,0.75
2023-04-05T06:27:34.791Z,0.76
2023-04-05T06:28:34.671Z,0.73
2023-04-05T06:29:34.659Z,0.87
2023-04-05T06:30:34.676Z,0.87
2023-04-05T06:31:34.663Z,0.73
2023-04-05T06:32:34.677Z,0.58
2023-04-05T06:33:34.640Z,0.68
2023-04-05T06:34:34.631Z,0.57
2023-04-05T06:35:34.607Z,0.68
2023-04-05T06:36:34.675Z,0.65
2023-04-05T06:37:34.573Z,0.69
2023-04-05T06:38:34.584Z,0.73
2023-04-05T06:39:34.550Z,0.84
2023-04-05T06:40:34.532Z,0.93
2023-04-05T06:41:34.521Z,0.91
2023-04-05T06:42:34.544Z,0.86
2023-04-05T06:43:34.514Z,0.87
2023-04-05T06:44:34.510Z,0.87
2023-04-05T06:45:34.505Z,1.00
2023-04-05T06:46:34.465Z,1.06
2023-04-05T06:47:34.462Z,1.15
2023-04-05T06:48:34.438Z,1.20
2023-04-05T06:49:34.465Z,1.12
2023-04-05T06:50:34.414Z,1.16
2023-04-05T06:51:35.065Z,1.22
2023-04-05T06:52:34.403Z,1.34
2023-04-05T06:53:34.412Z,1.33
2023-04-05T06:54:34.379Z,1.40
2023-04-05T06:55:34.360Z,1.47
2023-04-05T06:56:34.359Z,1.55
2023-04-05T06:57:34.343Z,1.55
2023-04-05T06:58:34.366Z,1.65
2023-04-05T06:59:34.371Z,1.72
2023-04-05T07:00:34.333Z,1.79
2023-04-05T07:01:34.345Z,1.62
2023-04-05T07:02:36.122Z,1.60
2023-04-05T07:03:34.278Z,1.72
2023-04-05T07:04:34.300Z,1.76
2023-04-05T07:05:34.246Z,1.79
2023-04-05T07:06:34.248Z,1.95
2023-04-05T07:07:34.240Z,2.20
2023-04-05T07:08:34.214Z,2.52
2023-04-05T07:09:34.223Z,2.87
2023-04-05T07:10:34.224Z,3.26
2023-04-05T07:11:34.196Z,3.75
2023-04-05T07:12:34.200Z,4.18
2023-04-05T07:13:34.154Z,4.67
2023-04-05T07:14:34.271Z,4.94
2023-04-05T07:15:34.143Z,5.10
2023-04-05T07:16:34.181Z,5.49
2023-04-05T07:17:34.310Z,5.79
2023-04-05T07:18:34.129Z,6.12
2023-04-05T07:19:34.082Z,6.27
2023-04-05T07:20:34.081Z,6.37
2023-04-05T07:21:34.079Z,6.51
2023-04-05T07:22:34.074Z,6.69
2023-04-05T07:23:34.044Z,6.66
2023-04-05T07:24:34.111Z,6.76
2023-04-05T07:25:34.023Z,6.85
2023-04-05T07:26:34.049Z,7.02
2023-04-05T07:27:34.022Z,7.15
2023-04-05T07:28:33.985Z,7.10
2023-04-05T07:29:33.971Z,7.13
2023-04-05T07:30:33.981Z,7.16
2023-04-05T07:31:33.950Z,7.17
2023-04-05T07:32:34.012Z,7.13
2023-04-05T07:33:33.933Z,6.80
2023-04-05T07:34:33.919Z,6.67
2023-04-05T07:35:33.950Z,6.22
2023-04-05T07:36:35.396Z,6.11
2023-04-05T07:37:33.904Z,5.97
2023-04-05T07:38:33.898Z,5.94
2023-04-05T07:39:33.868Z,6.08
2023-04-05T07:40:33.849Z,6.00
2023-04-05T07:41:33.843Z,5.90
2023-04-05T07:42:33.827Z,5.89
2023-04-05T07:43:33.841Z,5.85
2023-04-05T07:44:33.804Z,5.74
2023-04-05T07:45:33.829Z,5.76
2023-04-05T07:46:33.845Z,5.78
2023-04-05T07:47:33.810Z,5.89
2023-04-05T07:48:33.790Z,5.97
2023-04-05T07:49:33.765Z,6.00
2023-04-05T07:50:33.754Z,6.18
2023-04-05T07:51:33.725Z,6.06
2023-04-05T07:52:33.756Z,5.99
2023-04-05T07:53:34.317Z,6.12
2023-04-05T07:54:33.691Z,6.37
2023-04-05T07:55:33.699Z,6.59
2023-04-05T07:56:33.666Z,6.59
2023-04-05T07:57:33.680Z,6.56
2023-04-05T07:58:33.662Z,6.58
2023-04-05T07:59:33.701Z,6.52
2023-04-05T08:00:33.640Z,6.55
2023-04-05T08:01:33.647Z,6.62
2023-04-05T08:02:33.673Z,6.73
2023-04-05T08:03:33.625Z,6.73
2023-04-05T08:04:33.716Z,6.73
2023-04-05T08:05:33.586Z,6.69
2023-04-05T08:06:33.575Z,6.34
2023-04-05T08:07:33.637Z,6.11
2023-04-05T08:08:33.580Z,6.12
2023-04-05T08:09:33.660Z,6.08
2023-04-05T08:10:33.514Z,6.00
2023-04-05T08:11:33.501Z,6.04
2023-04-05T08:12:42.181Z,5.94
2023-04-05T08:13:33.579Z,5.86
2023-04-05T08:14:33.584Z,5.76
2023-04-05T08:15:33.559Z,5.58
2023-04-05T08:16:40.698Z,5.31
2023-04-05T08:17:33.486Z,5.21
2023-04-05T08:18:33.523Z,4.96
2023-04-05T08:19:33.414Z,4.85
2023-04-05T08:20:33.424Z,4.84
2023-04-05T08:21:33.382Z,4.73
2023-04-05T08:22:33.448Z,4.73
2023-04-05T08:23:33.424Z,4.69
2023-04-05T08:24:33.531Z,4.50
2023-04-05T08:25:33.366Z,4.45
2023-04-05T08:26:33.343Z,4.54
2023-04-05T08:27:33.322Z,4.45
2023-04-05T08:28:33.295Z,4.47
2023-04-05T08:29:33.285Z,4.51
2023-04-05T08:30:33.313Z,4.51
2023-04-05T08:31:33.316Z,4.41
2023-04-05T08:32:33.304Z,4.47
2023-04-05T08:33:33.237Z,4.44
2023-04-05T08:34:33.251Z,4.47
2023-04-05T08:35:33.294Z,4.48
2023-04-05T08:36:33.208Z,4.34
2023-04-05T08:37:33.194Z,4.50
2023-04-05T08:38:33.187Z,4.34
2023-04-05T08:39:33.167Z,4.30
2023-04-05T08:40:33.180Z,4.30
2023-04-05T08:41:33.152Z,4.45
2023-04-05T08:42:33.157Z,4.41
2023-04-05T08:43:33.123Z,4.36
2023-04-05T08:44:33.111Z,4.34
2023-04-05T08:45:33.117Z,4.27
2023-04-05T08:46:33.107Z,4.18
2023-04-05T08:47:33.147Z,4.18
2023-04-05T08:48:33.646Z,4.15
2023-04-05T08:49:33.076Z,4.15
2023-04-05T08:50:33.069Z,4.14
2023-04-05T08:51:33.060Z,4.12
2023-04-05T08:52:33.027Z,4.08
2023-04-05T08:53:33.032Z,4.20
2023-04-05T08:54:33.014Z,4.18
2023-04-05T08:55:32.990Z,4.16
2023-04-05T08:56:32.983Z,4.26
2023-04-05T08:57:32.966Z,4.33
2023-04-05T08:58:32.959Z,4.37
2023-04-05T08:59:33.062Z,4.44
2023-04-05T09:00:32.963Z,4.34
2023-04-05T09:01:32.978Z,4.47
2023-04-05T09:02:33.043Z,4.45
2023-04-05T09:03:33.113Z,4.50
2023-04-05T09:04:32.938Z,4.50
2023-04-05T09:05:32.877Z,4.40
2023-04-05T09:06:32.896Z,4.32
2023-04-05T09:07:32.853Z,4.24
2023-04-05T09:08:32.882Z,4.18
2023-04-05T09:09:32.843Z,4.27
2023-04-05T09:10:32.823Z,4.30
2023-04-05T09:11:32.832Z,4.33
2023-04-05T09:12:32.831Z,4.34
2023-04-05T09:13:32.800Z,4.45
2023-04-05T09:14:32.779Z,4.41
2023-04-05T09:15:32.773Z,4.44
2023-04-05T09:16:32.826Z,4.59
2023-04-05T09:17:32.808Z,4.47
2023-04-05T09:18:32.811Z,4.33
2023-04-05T09:19:32.732Z,4.45
2023-04-05T09:20:32.710Z,4.45
2023-04-05T09:21:32.721Z,4.44
2023-04-05T09:22:32.705Z,4.54
2023-04-05T09:23:32.680Z,4.66
2023-04-05T09:24:32.679Z,4.59
2023-04-05T09:25:32.659Z,4.77
2023-04-05T09:26:32.663Z,4.67
2023-04-05T09:27:32.638Z,4.72
2023-04-05T09:28:32.621Z,4.73
2023-04-05T09:29:32.629Z,4.84
2023-04-05T09:30:32.857Z,4.86
2023-04-05T09:31:32.647Z,4.91
2023-04-05T09:32:32.671Z,5.00
2023-04-05T09:33:32.558Z,5.12
2023-04-05T09:34:35.155Z,5.04
2023-04-05T09:35:32.561Z,5.04
2023-04-05T09:36:32.559Z,4.97
2023-04-05T09:37:32.522Z,4.99
2023-04-05T09:38:32.543Z,5.07
2023-04-05T09:39:32.532Z,4.96
2023-04-05T09:40:32.485Z,4.97
2023-04-05T09:41:32.478Z,5.09
2023-04-05T09:42:32.478Z,5.07
2023-04-05T09:43:32.457Z,5.04
2023-04-05T09:44:32.454Z,5.15
2023-04-05T09:45:32.426Z,5.02
2023-04-05T09:46:32.488Z,4.92
2023-04-05T09:47:32.518Z,4.94
2023-04-05T09:48:32.398Z,4.88
2023-04-05T09:49:32.395Z,4.91
2023-04-05T09:50:32.370Z,5.04
2023-04-05T09:51:32.358Z,5.06
2023-04-05T09:52:32.419Z,5.12
2023-04-05T09:53:32.372Z,5.09
2023-04-05T09:54:32.340Z,5.00
2023-04-05T09:55:32.331Z,5.00
2023-04-05T09:56:32.307Z,5.03
2023-04-05T09:57:32.332Z,5.07
2023-04-05T09:58:32.289Z,5.06
2023-04-05T09:59:32.294Z,5.17
2023-04-05T10:00:32.253Z,5.25
2023-04-05T10:01:32.293Z,5.38
2023-04-05T10:02:32.302Z,5.28
2023-04-05T10:03:32.331Z,5.39
2023-04-05T10:04:32.215Z,5.38
2023-04-05T10:05:32.204Z,5.42
2023-04-05T10:06:32.200Z,5.57
2023-04-05T10:07:32.204Z,5.49
2023-04-05T10:08:32.155Z,5.53
2023-04-05T10:09:33.578Z,5.49
2023-04-05T10:10:32.152Z,5.51
2023-04-05T10:11:32.133Z,5.51
2023-04-05T10:12:32.118Z,5.45
2023-04-05T10:13:32.093Z,5.51
2023-04-05T10:14:32.099Z,5.54
2023-04-05T10:15:32.084Z,5.54
2023-04-05T10:16:32.112Z,5.58
2023-04-05T10:17:32.084Z,5.53
2023-04-05T10:18:32.049Z,5.51
2023-04-05T10:19:32.029Z,5.46
2023-04-05T10:20:32.011Z,5.48
2023-04-05T10:21:32.047Z,5.56
2023-04-05T10:22:32.006Z,5.40
2023-04-05T10:23:31.979Z,5.33
2023-04-05T10:24:31.988Z,5.17
2023-04-05T10:25:31.958Z,5.21
2023-04-05T10:26:31.978Z,5.00
2023-04-05T10:27:31.933Z,5.07
2023-04-05T10:28:31.920Z,5.04
2023-04-05T10:29:31.934Z,5.03
2023-04-05T10:30:31.905Z,5.10
2023-04-05T10:31:37.613Z,5.20
2023-04-05T10:32:33.026Z,5.31
2023-04-05T10:33:31.897Z,5.49
2023-04-05T10:34:31.850Z,5.46
2023-04-05T10:35:31.870Z,5.63
2023-04-05T10:36:31.948Z,5.67
2023-04-05T10:37:31.817Z,5.90
2023-04-05T10:38:31.808Z,5.86
2023-04-05T10:39:31.798Z,5.91
2023-04-05T10:40:31.790Z,6.00
2023-04-05T10:41:31.853Z,6.08
2023-04-05T10:42:31.793Z,6.15
2023-04-05T10:43:31.806Z,6.11
2023-04-05T10:44:31.803Z,6.22
2023-04-05T10:45:33.201Z,6.25
2023-04-05T10:46:31.827Z,6.17
2023-04-05T10:47:31.806Z,6.12
2023-04-05T10:48:31.690Z,6.12
2023-04-05T10:49:31.686Z,6.09
2023-04-05T10:50:31.668Z,6.06
2023-04-05T10:51:31.715Z,5.97
2023-04-05T10:52:31.669Z,5.96
2023-04-05T10:53:31.658Z,5.94
2023-04-05T10:54:31.617Z,6.00
2023-04-05T10:55:31.703Z,6.03
2023-04-05T10:56:31.618Z,6.01
2023-04-05T10:57:31.586Z,6.08
2023-04-05T10:58:31.612Z,5.97
2023-04-05T10:59:31.703Z,6.14
2023-04-05T11:00:31.571Z,6.06
2023-04-05T11:01:31.693Z,5.93
2023-04-05T11:02:31.589Z,5.93
2023-04-05T11:03:31.653Z,5.94
2023-04-05T11:04:31.563Z,5.86
2023-04-05T11:05:31.515Z,5.74
2023-04-05T11:06:31.489Z,5.61
2023-04-05T11:07:31.569Z,5.60
2023-04-05T11:08:31.481Z,5.65
2023-04-05T11:09:31.457Z,5.67
2023-04-05T11:10:31.463Z,5.63
2023-04-05T11:11:33.805Z,5.61
2023-04-05T11:12:31.420Z,5.53
2023-04-05T11:13:31.413Z,5.63
2023-04-05T11:14:31.427Z,5.64
2023-04-05T11:15:31.404Z,5.67
2023-04-05T11:16:31.392Z,5.56
2023-04-05T11:17:31.410Z,5.65
2023-04-05T11:18:31.349Z,5.64
2023-04-05T11:19:31.338Z,5.71
2023-04-05T11:20:31.353Z,5.72
2023-04-05T11:21:31.314Z,5.68
2023-04-05T11:22:31.311Z,5.65
2023-04-05T11:23:31.306Z,5.74
2023-04-05T11:24:33.129Z,5.83
2023-04-05T11:25:31.295Z,5.93
2023-04-05T11:26:31.315Z,5.96
2023-04-05T11:27:31.251Z,5.99
2023-04-05T11:28:31.237Z,5.91
2023-04-05T11:29:31.237Z,6.09
2023-04-05T11:30:31.267Z,6.14
2023-04-05T11:31:31.243Z,6.21
2023-04-05T11:32:31.199Z,6.22
2023-04-05T11:33:31.178Z,6.22
2023-04-05T11:34:31.193Z,6.25
2023-04-05T11:35:31.186Z,6.25
2023-04-05T11:36:31.219Z,6.33
2023-04-05T11:37:31.136Z,6.36
2023-04-05T11:38:31.132Z,6.34
2023-04-05T11:39:31.112Z,6.37
2023-04-05T11:40:31.117Z,6.43
2023-04-05T11:41:31.102Z,6.66
2023-04-05T11:42:31.079Z,6.73
2023-04-05T11:43:31.066Z,6.87
2023-04-05T11:44:31.055Z,7.03
2023-04-05T11:45:32.266Z,6.97
2023-04-05T11:46:31.121Z,6.97
2023-04-05T11:47:31.074Z,7.15
2023-04-05T11:48:31.011Z,7.40
2023-04-05T11:49:31.017Z,7.40
2023-04-05T11:50:30.999Z,7.48
2023-04-05T11:51:30.980Z,7.67
2023-04-05T11:52:30.962Z,7.80
2023-04-05T11:53:30.963Z,7.92
2023-04-05T11:54:30.982Z,8.11
2023-04-05T11:55:30.935Z,8.11
2023-04-05T11:56:30.917Z,8.07
2023-04-05T11:57:30.930Z,8.07
2023-04-05T11:58:30.910Z,7.98
2023-04-05T11:59:30.929Z,7.74
2023-04-05T12:00:30.873Z,7.52
2023-04-05T12:01:30.862Z,7.37
2023-04-05T12:02:30.944Z,7.13
2023-04-05T12:03:31.012Z,7.06
2023-04-05T12:04:30.869Z,6.77
2023-04-05T12:05:30.821Z,6.67
2023-04-05T12:06:30.801Z,6.59
2023-04-05T12:07:30.795Z,6.51
2023-04-05T12:08:30.775Z,6.36
2023-04-05T12:09:30.787Z,6.40
2023-04-05T12:10:30.751Z,6.36
2023-04-05T12:11:30.756Z,6.34
2023-04-05T12:12:30.733Z,6.21
2023-04-05T12:13:30.726Z,6.11
2023-04-05T12:14:30.727Z,5.91
2023-04-05T12:15:30.699Z,5.81
2023-04-05T12:16:30.811Z,5.72
2023-04-05T12:17:30.717Z,5.53
2023-04-05T12:18:30.700Z,5.51
2023-04-05T12:19:38.286Z,5.46
2023-04-05T12:20:30.652Z,5.38
2023-04-05T12:21:30.652Z,5.35
2023-04-05T12:22:37.729Z,5.36
2023-04-05T12:23:39.037Z,5.39
2023-04-05T12:24:37.705Z,5.38
2023-04-05T12:25:30.669Z,5.28
2023-04-05T12:26:37.664Z,5.25
2023-04-05T12:27:30.566Z,5.20
2023-04-05T12:28:30.558Z,5.06
2023-04-05T12:29:30.557Z,5.15
2023-04-05T12:30:30.548Z,5.07
2023-04-05T12:31:30.535Z,4.99
2023-04-05T12:32:30.614Z,5.06
2023-04-05T12:33:30.512Z,5.02
2023-04-05T12:34:30.521Z,5.03
2023-04-05T12:35:30.466Z,5.06
2023-04-05T12:36:30.490Z,5.15
2023-04-05T12:37:30.462Z,5.00
2023-04-05T12:38:30.434Z,5.04
2023-04-05T12:39:30.445Z,5.06
2023-04-05T12:40:30.437Z,5.06
2023-04-05T12:41:30.415Z,5.02
2023-04-05T12:42:30.412Z,4.94
2023-04-05T12:43:30.393Z,4.91
2023-04-05T12:44:31.346Z,4.85
2023-04-05T12:45:30.383Z,4.80
2023-04-05T12:46:30.550Z,4.89
2023-04-05T12:47:30.352Z,4.94
2023-04-05T12:48:30.353Z,5.03
2023-04-05T12:49:30.314Z,4.94
2023-04-05T12:50:30.345Z,4.91
2023-04-05T12:51:30.294Z,5.00
2023-04-05T12:52:30.272Z,5.00
2023-04-05T12:53:30.273Z,4.96
2023-04-05T12:54:30.287Z,5.04
2023-04-05T12:55:30.248Z,5.06
2023-04-05T12:56:30.227Z,5.06
2023-04-05T12:57:30.213Z,5.03
2023-04-05T12:58:30.221Z,5.00
2023-04-05T12:59:30.280Z,5.00
2023-04-05T13:00:30.217Z,5.02
2023-04-05T13:01:30.977Z,5.03
2023-04-05T13:02:30.297Z,5.00
2023-04-05T13:03:30.369Z,4.88
2023-04-05T13:04:30.253Z,4.75
2023-04-05T13:05:30.188Z,4.70
2023-04-05T13:06:30.193Z,4.77
2023-04-05T13:07:30.172Z,4.75